Heat Index SAI AWOS Graphical Display Untitled Document
Bertrand Chaffee Hospital Heliport (2NK6) Springville, New York, USA
260
11:09
04/03/2015
09
15
VRB
29.77
N/A
1420
31(F), -1(C)
29(F), -2(C)
23 F
91%
SCT009 OVC014
10
N/A
0"
N/A
11:09 zulu Wind 260 at 09 Knots, Gusting 15 Knots, Altimeter 29.77
METAR K2NK6 041109Z AUTO 26009G15KT V0RB 10SM SCT009 OVC014 M01/M02 A2977 A02 P0000
METAR:
FAA Disclaimer--Advisory Use ONLY, not for flight info--
INFO:
Wind Direction:
Wind Speed:
Wind Gust:
Wind Variable:
Altimeter:
Dens Alt:
Elev:
Temp:
Dwpt:
Wind Chill
Rel Humidity:
Ceiling:
Visibility:
Prsnt Wea:
PCPN:
Remarks:
How to read the WebPage